createdAt,value
2019-06-20T00:01:28.264Z,43.91
2019-06-20T00:03:58.044Z,44.00
2019-06-20T00:06:27.823Z,47.13
2019-06-20T00:08:57.597Z,45.35
2019-06-20T00:11:27.384Z,45.17
2019-06-20T00:13:57.432Z,56.21
2019-06-20T00:16:27.218Z,50.25
2019-06-20T00:18:56.970Z,49.62
2019-06-20T00:21:26.733Z,57.64
2019-06-20T00:23:56.623Z,58.57
2019-06-20T00:26:26.377Z,57.55
2019-06-20T00:28:56.404Z,55.39
2019-06-20T00:31:26.179Z,52.81
2019-06-20T00:33:56.166Z,54.47
2019-06-20T00:36:25.921Z,51.05
2019-06-20T00:38:55.901Z,54.45
2019-06-20T00:41:25.632Z,55.17
2019-06-20T00:43:55.492Z,53.46
2019-06-20T00:46:25.499Z,57.17
2019-06-20T00:48:55.265Z,57.19
2019-06-20T00:51:25.184Z,57.86
2019-06-20T00:53:55.014Z,59.17
2019-06-20T00:56:25.160Z,59.82
2019-06-20T00:58:54.997Z,61.62
2019-06-20T01:01:25.010Z,61.62
2019-06-20T01:03:54.785Z,59.89
2019-06-20T01:06:24.576Z,57.23
2019-06-20T01:08:54.359Z,57.23
2019-06-20T01:11:24.129Z,53.83
2019-06-20T01:13:53.895Z,53.83
2019-06-20T01:16:23.959Z,51.98
2019-06-20T01:18:54.316Z,51.63
2019-06-20T01:21:24.111Z,51.63
2019-06-20T01:23:53.978Z,51.71
2019-06-20T01:26:23.689Z,53.59
2019-06-20T01:28:54.063Z,54.27
2019-06-20T01:31:23.897Z,54.34
2019-06-20T01:33:53.666Z,55.07
2019-06-20T01:36:23.811Z,55.52
2019-06-20T01:38:53.598Z,57.24
2019-06-20T01:41:23.543Z,57.79
2019-06-20T01:43:53.344Z,57.35
2019-06-20T01:46:23.128Z,57.54
2019-06-20T01:48:52.946Z,59.30
2019-06-20T01:51:23.025Z,59.30
2019-06-20T01:53:52.899Z,60.38
2019-06-20T01:56:22.647Z,60.38
2019-06-20T01:58:52.423Z,61.49
2019-06-20T02:01:22.506Z,61.49
2019-06-20T02:03:52.738Z,61.19
2019-06-20T02:06:22.519Z,62.59
2019-06-20T02:08:52.272Z,62.59
2019-06-20T02:11:22.383Z,62.72
2019-06-20T02:14:06.457Z,62.81
2019-06-20T02:16:23.654Z,63.08
2019-06-20T02:18:53.408Z,63.54
2019-06-20T02:21:23.246Z,64.42
2019-06-20T02:23:53.003Z,64.23
2019-06-20T02:26:22.754Z,65.14
2019-06-20T02:28:52.569Z,64.84
2019-06-20T02:31:22.318Z,64.87
2019-06-20T02:33:52.109Z,65.96
2019-06-20T02:36:21.862Z,65.84
2019-06-20T02:38:51.624Z,66.20
2019-06-20T02:41:21.374Z,67.32
2019-06-20T02:43:51.119Z,65.71
2019-06-20T02:46:21.155Z,65.69
2019-06-20T02:48:51.869Z,66.34
2019-06-20T02:51:24.848Z,66.87
2019-06-20T02:53:55.676Z,66.05
2019-06-20T02:56:25.443Z,66.87
2019-06-20T02:58:55.209Z,66.75
2019-06-20T03:01:25.849Z,68.29
2019-06-20T03:03:55.598Z,67.30
2019-06-20T03:06:25.419Z,66.72
2019-06-20T03:08:55.185Z,66.38
2019-06-20T03:11:25.148Z,67.83
2019-06-20T03:13:54.914Z,67.22
2019-06-20T03:16:24.662Z,66.94
2019-06-20T03:18:54.464Z,68.28
2019-06-20T03:21:24.455Z,68.75
2019-06-20T03:23:54.489Z,68.07
2019-06-20T03:26:24.245Z,67.75
2019-06-20T03:28:53.985Z,67.64
2019-06-20T03:31:23.737Z,66.80
2019-06-20T03:33:53.720Z,67.97
2019-06-20T03:36:23.496Z,68.29
2019-06-20T03:38:53.291Z,67.38
2019-06-20T03:41:23.064Z,68.71
2019-06-20T03:43:54.092Z,66.70
2019-06-20T03:46:24.429Z,66.49
2019-06-20T03:48:54.242Z,66.73
2019-06-20T03:51:24.015Z,65.97
2019-06-20T03:53:53.751Z,65.95
2019-06-20T03:56:24.795Z,67.39
2019-06-20T03:58:54.797Z,68.70
2019-06-20T04:01:24.559Z,68.75
2019-06-20T04:03:54.329Z,68.14
2019-06-20T04:06:24.074Z,68.59
2019-06-20T04:08:53.843Z,67.15
2019-06-20T04:11:24.594Z,65.70
2019-06-20T04:13:54.442Z,66.19
2019-06-20T04:16:24.257Z,66.66
2019-06-20T04:18:54.015Z,65.58
2019-06-20T04:21:23.752Z,65.43
2019-06-20T04:23:53.500Z,65.16
2019-06-20T04:26:23.256Z,64.45
2019-06-20T04:28:53.003Z,64.37
2019-06-20T04:31:22.760Z,65.28
2019-06-20T04:33:52.489Z,64.52
2019-06-20T04:36:22.242Z,65.34
2019-06-20T04:38:51.971Z,66.02
2019-06-20T04:41:21.724Z,66.46
2019-06-20T04:43:52.509Z,66.92
2019-06-20T04:46:27.788Z,66.23
2019-06-20T04:48:57.533Z,65.36
2019-06-20T04:51:27.281Z,67.50
2019-06-20T04:53:57.083Z,65.62
2019-06-20T04:56:26.878Z,65.61
2019-06-20T04:58:56.724Z,63.77
2019-06-20T05:01:26.478Z,62.67
2019-06-20T05:03:56.240Z,61.06
2019-06-20T05:06:25.977Z,61.32
2019-06-20T05:08:55.815Z,60.46
2019-06-20T05:11:25.565Z,59.71
2019-06-20T05:13:55.610Z,60.42
2019-06-20T05:16:25.364Z,61.60
2019-06-20T05:18:55.416Z,62.74
2019-06-20T05:21:25.193Z,59.97
2019-06-20T05:23:55.028Z,61.95
2019-06-20T05:26:24.776Z,60.56
2019-06-20T05:28:54.553Z,62.64
2019-06-20T05:31:24.550Z,61.14
2019-06-20T05:33:54.709Z,59.78
2019-06-20T05:36:24.470Z,60.92
2019-06-20T05:38:54.223Z,60.92
2019-06-20T05:41:23.972Z,59.34
2019-06-20T05:43:53.777Z,61.58
2019-06-20T05:46:23.511Z,61.58
2019-06-20T05:48:53.580Z,60.18
2019-06-20T05:51:24.070Z,59.83
2019-06-20T05:53:53.930Z,59.83
2019-06-20T05:56:23.685Z,60.80
2019-06-20T05:58:53.436Z,60.80
2019-06-20T06:01:23.473Z,61.37
2019-06-20T06:03:53.228Z,63.53
2019-06-20T06:06:23.020Z,63.53
2019-06-20T06:08:52.776Z,62.25
2019-06-20T06:11:22.576Z,62.50
2019-06-20T06:13:53.345Z,63.18
2019-06-20T06:16:27.223Z,62.46
2019-06-20T06:18:55.061Z,62.46
2019-06-20T06:21:24.922Z,63.02
2019-06-20T06:23:54.756Z,69.94
2019-06-20T06:26:24.502Z,69.94
2019-06-20T06:28:55.529Z,74.34
2019-06-20T06:31:25.289Z,73.71
2019-06-20T06:33:55.037Z,74.68
2019-06-20T06:36:24.788Z,76.56
2019-06-20T06:38:54.530Z,78.01
2019-06-20T06:41:24.293Z,77.93
2019-06-20T06:43:54.045Z,77.26
2019-06-20T06:46:24.116Z,77.53
2019-06-20T06:48:53.880Z,79.71
2019-06-20T06:51:23.643Z,77.86
2019-06-20T06:53:53.409Z,78.68
2019-06-20T06:56:23.152Z,77.33
2019-06-20T06:58:52.935Z,75.46
2019-06-20T07:01:22.752Z,77.27
2019-06-20T07:03:52.579Z,76.37
2019-06-20T07:06:22.654Z,75.41
2019-06-20T07:08:52.464Z,77.95
2019-06-20T07:11:22.482Z,78.31
2019-06-20T07:13:52.657Z,77.29
2019-06-20T07:16:22.446Z,76.30
2019-06-20T07:18:53.369Z,77.71
2019-06-20T07:21:23.135Z,73.65
2019-06-20T07:23:53.109Z,76.25
2019-06-20T07:26:22.902Z,76.27
2019-06-20T07:28:52.969Z,77.53
2019-06-20T07:31:22.796Z,73.27
2019-06-20T07:33:52.535Z,71.33
2019-06-20T07:36:22.312Z,74.60
2019-06-20T07:38:52.053Z,75.00
2019-06-20T07:41:21.861Z,73.93
2019-06-20T07:43:51.634Z,73.65
2019-06-20T07:46:21.694Z,73.30
2019-06-20T07:48:51.763Z,71.76
2019-06-20T07:51:22.015Z,74.97
2019-06-20T07:53:51.962Z,75.53
2019-06-20T07:56:21.910Z,73.16
2019-06-20T07:58:51.985Z,73.24
2019-06-20T08:01:21.756Z,71.19
2019-06-20T08:03:51.514Z,75.28
2019-06-20T08:06:21.498Z,74.00
2019-06-20T08:08:51.291Z,73.47
2019-06-20T08:11:21.541Z,74.06
2019-06-20T08:13:51.326Z,72.71
2019-06-20T08:16:21.382Z,74.31
2019-06-20T08:18:51.155Z,72.39
2019-06-20T08:21:20.915Z,72.49
2019-06-20T08:23:50.688Z,72.05
2019-06-20T08:26:20.785Z,70.97
2019-06-20T08:29:07.112Z,72.28
2019-06-20T08:31:22.150Z,71.73
2019-06-20T08:33:51.890Z,71.26
2019-06-20T08:36:21.703Z,69.53
2019-06-20T08:38:51.456Z,71.43
2019-06-20T08:41:21.393Z,69.73
2019-06-20T08:43:51.230Z,68.56
2019-06-20T08:46:21.551Z,67.71
2019-06-20T08:48:51.368Z,67.71
2019-06-20T08:51:21.209Z,67.27
2019-06-20T08:53:50.970Z,65.96
2019-06-20T08:56:21.028Z,65.96
2019-06-20T08:58:50.780Z,66.15
2019-06-20T09:01:20.718Z,67.39
2019-06-20T09:03:50.517Z,64.70
2019-06-20T09:06:20.460Z,63.55
2019-06-20T09:08:50.207Z,64.62
2019-06-20T09:11:19.961Z,63.36
2019-06-20T09:13:49.992Z,66.92
2019-06-20T09:16:24.576Z,66.92
2019-06-20T09:18:53.265Z,65.99
2019-06-20T09:21:22.646Z,64.75
2019-06-20T09:23:54.011Z,66.88
2019-06-20T09:26:24.070Z,64.23
2019-06-20T09:28:54.403Z,67.17
2019-06-20T09:31:25.835Z,64.06
2019-06-20T09:33:56.657Z,63.12
2019-06-20T09:36:26.415Z,64.83
2019-06-20T09:38:57.820Z,66.07
2019-06-20T09:41:27.956Z,65.92
2019-06-20T09:43:58.541Z,64.86
2019-06-20T09:46:28.394Z,62.59
2019-06-20T09:48:58.716Z,62.04
2019-06-20T09:51:28.616Z,63.03
2019-06-20T09:53:58.365Z,59.43
2019-06-20T09:56:28.148Z,60.63
2019-06-20T09:58:58.327Z,60.63
2019-06-20T10:01:28.616Z,61.77
2019-06-20T10:03:58.467Z,60.66
2019-06-20T10:06:29.293Z,62.27
2019-06-20T10:08:59.057Z,60.01
2019-06-20T10:11:30.052Z,61.94
2019-06-20T10:13:59.877Z,61.78
2019-06-20T10:16:42.419Z,58.57
2019-06-20T10:19:01.133Z,59.86
2019-06-20T10:21:30.868Z,57.22
2019-06-20T10:24:00.789Z,55.05
2019-06-20T10:26:30.916Z,55.14
2019-06-20T10:29:00.704Z,50.48
2019-06-20T10:31:30.501Z,51.42
2019-06-20T10:34:00.379Z,53.57
2019-06-20T10:36:30.146Z,53.53
2019-06-20T10:39:00.047Z,50.74
2019-06-20T10:41:30.132Z,51.46
2019-06-20T10:44:00.207Z,51.04
2019-06-20T10:46:29.973Z,53.67
2019-06-20T10:48:59.936Z,54.38
2019-06-20T10:51:45.547Z,54.71
2019-06-20T10:54:16.042Z,53.82
2019-06-20T10:56:47.145Z,51.01
2019-06-20T10:59:17.458Z,53.18
2019-06-20T11:01:48.377Z,51.64
2019-06-20T11:04:18.326Z,54.52
2019-06-20T11:06:48.089Z,50.55
2019-06-20T11:09:17.829Z,51.51
2019-06-20T11:11:48.768Z,48.89
2019-06-20T11:14:19.023Z,46.75
2019-06-20T11:16:49.317Z,51.23
2019-06-20T11:19:19.213Z,47.96
2019-06-20T11:21:49.050Z,50.52
2019-06-20T11:24:19.198Z,48.46
2019-06-20T11:26:49.159Z,45.83
2019-06-20T11:29:19.058Z,45.59
2019-06-20T11:31:49.605Z,49.59
2019-06-20T11:34:19.732Z,47.72
2019-06-20T11:36:49.494Z,49.10
2019-06-20T11:39:19.287Z,46.42
2019-06-20T11:41:49.103Z,46.61
2019-06-20T11:44:18.877Z,49.41
2019-06-20T11:46:49.481Z,47.01
2019-06-20T11:49:19.228Z,46.15
2019-06-20T11:51:49.080Z,46.36
2019-06-20T11:54:18.801Z,48.35
2019-06-20T11:56:48.663Z,48.12
2019-06-20T11:59:18.478Z,47.58
2019-06-20T12:01:49.086Z,47.28
2019-06-20T12:04:18.916Z,49.29
2019-06-20T12:06:49.351Z,49.84
2019-06-20T12:09:19.373Z,51.31
2019-06-20T12:11:49.197Z,49.78
2019-06-20T12:14:18.970Z,48.24
2019-06-20T12:16:48.818Z,50.18
2019-06-20T12:19:18.570Z,50.63
2019-06-20T12:21:49.128Z,47.57
2019-06-20T12:24:19.147Z,46.76
2019-06-20T12:26:48.944Z,45.97
2019-06-20T12:29:18.904Z,46.30
2019-06-20T12:31:48.637Z,44.99
2019-06-20T12:34:18.426Z,42.75
2019-06-20T12:36:48.631Z,46.63
2019-06-20T12:39:18.483Z,46.66
2019-06-20T12:41:48.320Z,46.15
2019-06-20T12:44:18.108Z,46.50
2019-06-20T12:46:49.042Z,48.61
2019-06-20T12:49:18.914Z,50.26
2019-06-20T12:51:49.076Z,47.63
2019-06-20T12:54:18.813Z,44.60
2019-06-20T12:56:48.643Z,44.98
2019-06-20T12:59:18.864Z,46.10
2019-06-20T13:01:49.946Z,50.21
2019-06-20T13:04:20.302Z,47.63
2019-06-20T13:06:50.273Z,47.26
2019-06-20T13:09:20.404Z,48.47
2019-06-20T13:11:50.301Z,50.04
2019-06-20T13:14:20.229Z,50.02
2019-06-20T13:16:51.148Z,45.61
2019-06-20T13:19:20.894Z,46.87
2019-06-20T13:21:50.669Z,48.95
2019-06-20T13:24:20.486Z,49.88
2019-06-20T13:26:51.419Z,48.92
2019-06-20T13:29:21.338Z,47.73
2019-06-20T13:32:02.058Z,50.63
2019-06-20T13:34:22.556Z,49.59
2019-06-20T13:36:52.463Z,52.73
2019-06-20T13:39:22.265Z,50.38
2019-06-20T13:41:52.095Z,52.61
2019-06-20T13:44:21.945Z,52.61
2019-06-20T13:46:51.803Z,53.78
2019-06-20T13:49:21.676Z,52.98
2019-06-20T13:51:51.480Z,53.04
2019-06-20T13:54:21.286Z,53.11
2019-06-20T13:56:51.815Z,52.02
2019-06-20T13:59:21.806Z,55.09
2019-06-20T14:02:05.887Z,59.07
2019-06-20T14:04:23.384Z,61.60
2019-06-20T14:06:53.821Z,59.30
2019-06-20T14:09:24.005Z,58.97
2019-06-20T14:11:54.176Z,62.83
2019-06-20T14:14:24.489Z,61.45
2019-06-20T14:16:55.301Z,58.22
2019-06-20T14:19:25.336Z,56.35
2019-06-20T14:21:56.545Z,57.37
2019-06-20T14:24:26.336Z,58.82
2019-06-20T14:26:56.065Z,54.93
2019-06-20T14:29:25.858Z,55.00
2019-06-20T14:31:55.739Z,58.72
2019-06-20T14:34:25.478Z,62.87
2019-06-20T14:36:55.364Z,59.77
2019-06-20T14:39:25.422Z,58.60
2019-06-20T14:41:55.361Z,61.85
2019-06-20T14:44:25.274Z,61.95
2019-06-20T14:46:55.044Z,58.52
2019-06-20T14:49:25.012Z,59.58
2019-06-20T14:51:55.165Z,61.85
2019-06-20T14:54:25.994Z,59.79
2019-06-20T14:56:58.161Z,63.14
2019-06-20T14:59:27.205Z,63.14
2019-06-20T15:01:57.057Z,62.10
2019-06-20T15:04:26.819Z,60.18
2019-06-20T15:06:56.561Z,60.18
2019-06-20T15:09:26.334Z,59.72
2019-06-20T15:11:56.123Z,55.67
2019-06-20T15:14:25.912Z,58.41
2019-06-20T15:16:55.656Z,57.19
2019-06-20T15:19:25.691Z,53.67
2019-06-20T15:21:56.555Z,52.99
2019-06-20T15:24:26.447Z,52.83
2019-06-20T15:26:56.526Z,54.94
2019-06-20T15:29:26.378Z,54.34
2019-06-20T15:31:56.980Z,53.68
2019-06-20T15:34:26.804Z,56.37
2019-06-20T15:36:57.806Z,55.04
2019-06-20T15:39:27.672Z,55.35
2019-06-20T15:41:58.245Z,54.24
2019-06-20T15:44:28.065Z,55.18
2019-06-20T15:46:58.850Z,54.78
2019-06-20T15:49:28.678Z,53.65
2019-06-20T15:51:59.214Z,52.96
2019-06-20T15:54:29.211Z,52.71
2019-06-20T15:56:59.151Z,52.72
2019-06-20T15:59:28.962Z,53.56
2019-06-20T16:01:58.730Z,51.22
2019-06-20T16:04:38.361Z,53.27
2019-06-20T16:07:08.384Z,50.55
2019-06-20T16:09:38.461Z,50.67
2019-06-20T16:12:08.341Z,52.89
2019-06-20T16:14:38.101Z,54.01
2019-06-20T16:17:07.964Z,53.06
2019-06-20T16:19:37.736Z,52.79
2019-06-20T16:22:07.571Z,49.78
2019-06-20T16:24:37.334Z,53.12
2019-06-20T16:27:07.116Z,52.21
2019-06-20T16:29:36.934Z,52.32
2019-06-20T16:32:06.922Z,52.01
2019-06-20T16:34:36.670Z,53.63
2019-06-20T16:37:10.076Z,55.61
2019-06-20T16:39:37.907Z,53.35
2019-06-20T16:42:07.689Z,52.62
2019-06-20T16:44:37.431Z,53.83
2019-06-20T16:47:07.285Z,53.58
2019-06-20T16:49:37.063Z,50.31
2019-06-20T16:52:06.841Z,53.38
2019-06-20T16:54:36.620Z,52.08
2019-06-20T16:57:06.411Z,53.93
2019-06-20T16:59:36.258Z,54.28
2019-06-20T17:02:06.028Z,52.42
2019-06-20T17:04:35.771Z,53.11
2019-06-20T17:07:05.613Z,54.69
2019-06-20T17:09:35.444Z,52.73
2019-06-20T17:12:05.364Z,53.04
2019-06-20T17:14:35.124Z,52.49
2019-06-20T17:17:04.974Z,53.71
2019-06-20T17:19:34.779Z,54.08
2019-06-20T17:22:04.708Z,55.55
2019-06-20T17:24:34.477Z,55.00
2019-06-20T17:27:04.314Z,53.39
2019-06-20T17:29:34.715Z,52.46
2019-06-20T17:32:04.698Z,51.98
2019-06-20T17:34:34.608Z,54.01
2019-06-20T17:37:09.566Z,53.86
2019-06-20T17:39:39.301Z,55.22
2019-06-20T17:42:09.131Z,53.96
2019-06-20T17:44:39.145Z,55.37
2019-06-20T17:47:08.939Z,53.25
2019-06-20T17:49:39.052Z,55.42
2019-06-20T17:52:08.916Z,54.61
2019-06-20T17:54:38.748Z,52.93
2019-06-20T17:57:08.539Z,53.60
2019-06-20T17:59:38.325Z,55.52
2019-06-20T18:02:08.156Z,52.04
2019-06-20T18:04:37.954Z,53.72
2019-06-20T18:07:07.812Z,53.39
2019-06-20T18:09:37.942Z,55.40
2019-06-20T18:12:09.329Z,53.60
2019-06-20T18:14:39.123Z,53.44
2019-06-20T18:17:08.916Z,53.89
2019-06-20T18:19:38.721Z,54.14
2019-06-20T18:22:08.536Z,55.35
2019-06-20T18:24:38.364Z,54.59
2019-06-20T18:27:08.229Z,54.75
2019-06-20T18:29:38.231Z,55.43
2019-06-20T18:32:08.056Z,54.06
2019-06-20T18:34:37.840Z,55.46
2019-06-20T18:37:07.703Z,55.48
2019-06-20T18:39:37.470Z,55.58
2019-06-20T18:42:07.348Z,55.14
2019-06-20T18:44:37.123Z,55.09
2019-06-20T18:47:06.921Z,55.30
2019-06-20T18:49:36.710Z,54.68
2019-06-20T18:52:06.572Z,54.73
2019-06-20T18:54:36.301Z,55.19
2019-06-20T18:57:06.148Z,55.07
2019-06-20T18:59:35.940Z,55.83
2019-06-20T19:02:07.382Z,56.58
2019-06-20T19:04:48.025Z,56.40
2019-06-20T19:07:09.021Z,55.80
2019-06-20T19:09:38.806Z,56.62
2019-06-20T19:12:08.899Z,55.74
2019-06-20T19:14:38.775Z,56.57
2019-06-20T19:17:08.629Z,55.69
2019-06-20T19:19:38.415Z,56.94
2019-06-20T19:22:08.352Z,55.98
2019-06-20T19:24:38.236Z,56.15
2019-06-20T19:27:08.029Z,56.15
2019-06-20T19:29:38.027Z,57.74
2019-06-20T19:32:07.809Z,57.45
2019-06-20T19:34:37.623Z,58.88
2019-06-20T19:37:07.492Z,58.06
2019-06-20T19:39:37.282Z,57.83
2019-06-20T19:42:07.112Z,57.83
2019-06-20T19:44:37.640Z,57.81
2019-06-20T19:47:07.630Z,58.59
2019-06-20T19:49:37.558Z,58.83
2019-06-20T19:52:07.452Z,58.28
2019-06-20T19:54:37.292Z,58.57
2019-06-20T19:57:07.263Z,58.29
2019-06-20T19:59:37.025Z,58.46
2019-06-20T20:02:07.219Z,58.46
2019-06-20T20:04:36.996Z,56.93
2019-06-20T20:07:06.841Z,57.84
2019-06-20T20:09:36.684Z,57.84
2019-06-20T20:12:06.455Z,58.03
2019-06-20T20:14:36.726Z,58.03
2019-06-20T20:17:06.638Z,57.86
2019-06-20T20:19:36.678Z,58.72
2019-06-20T20:22:07.272Z,59.10
2019-06-20T20:24:37.165Z,59.31
2019-06-20T20:27:07.098Z,59.31
2019-06-20T20:29:36.840Z,57.99
2019-06-20T20:32:06.840Z,58.27
2019-06-20T20:34:36.754Z,59.40
2019-06-20T20:37:06.571Z,57.02
2019-06-20T20:39:36.379Z,57.86
2019-06-20T20:42:06.557Z,57.86
2019-06-20T20:44:36.357Z,59.21
2019-06-20T20:47:06.203Z,59.75
2019-06-20T20:49:36.146Z,57.72
2019-06-20T20:52:06.293Z,57.08
2019-06-20T20:54:36.220Z,57.13
2019-06-20T20:57:05.993Z,57.13
2019-06-20T20:59:35.776Z,58.50
2019-06-20T21:02:05.548Z,60.24
2019-06-20T21:04:35.311Z,58.66
2019-06-20T21:07:05.091Z,60.33
2019-06-20T21:09:34.935Z,59.77
2019-06-20T21:12:05.138Z,59.56
2019-06-20T21:14:35.126Z,60.29
2019-06-20T21:17:05.122Z,60.48
2019-06-20T21:19:34.920Z,61.47
2019-06-20T21:22:04.741Z,60.93
2019-06-20T21:24:34.682Z,60.90
2019-06-20T21:27:04.559Z,60.52
2019-06-20T21:29:34.363Z,60.62
2019-06-20T21:32:04.167Z,62.15
2019-06-20T21:34:34.012Z,60.82
2019-06-20T21:37:03.781Z,62.00
2019-06-20T21:39:33.569Z,62.00
2019-06-20T21:42:03.368Z,60.83
2019-06-20T21:44:33.227Z,61.46
2019-06-20T21:47:03.373Z,61.04
2019-06-20T21:49:33.186Z,62.91
2019-06-20T21:52:03.254Z,62.91
2019-06-20T21:54:34.778Z,63.27
2019-06-20T21:57:05.807Z,63.27
2019-06-20T21:59:35.588Z,62.72
2019-06-20T22:02:06.890Z,62.13
2019-06-20T22:04:37.023Z,62.32
2019-06-20T22:07:06.822Z,62.16
2019-06-20T22:09:36.947Z,63.10
2019-06-20T22:12:06.918Z,63.10
2019-06-20T22:14:36.803Z,65.56
2019-06-20T22:17:07.362Z,68.74
2019-06-20T22:19:37.170Z,69.41
2019-06-20T22:22:07.017Z,73.65
2019-06-20T22:24:37.368Z,71.22
2019-06-20T22:27:08.144Z,73.43
2019-06-20T22:29:37.947Z,75.71
2019-06-20T22:32:07.715Z,77.64
2019-06-20T22:34:38.093Z,79.33
2019-06-20T22:37:08.088Z,80.39
2019-06-20T22:39:38.474Z,80.11
2019-06-20T22:42:09.889Z,81.24
2019-06-20T22:44:39.687Z,81.10
2019-06-20T22:47:09.488Z,81.10
2019-06-20T22:49:39.339Z,82.72
2019-06-20T22:52:09.451Z,83.65
2019-06-20T22:54:39.710Z,82.71
2019-06-20T22:57:11.124Z,83.25
2019-06-20T22:59:40.898Z,84.68
2019-06-20T23:02:10.988Z,84.84
2019-06-20T23:04:40.751Z,84.84
2019-06-20T23:07:10.527Z,84.57
2019-06-20T23:09:40.309Z,84.64
2019-06-20T23:12:10.437Z,84.61
2019-06-20T23:14:40.223Z,83.19
2019-06-20T23:17:10.028Z,81.87
2019-06-20T23:19:40.064Z,82.35
2019-06-20T23:22:09.830Z,84.11
2019-06-20T23:24:39.618Z,82.85
2019-06-20T23:27:09.449Z,83.57
2019-06-20T23:29:39.238Z,82.96
2019-06-20T23:32:09.039Z,83.68
2019-06-20T23:34:38.830Z,84.71
2019-06-20T23:37:12.567Z,84.17
2019-06-20T23:39:40.357Z,84.30
2019-06-20T23:42:10.154Z,84.17
2019-06-20T23:44:40.245Z,82.59
2019-06-20T23:47:10.044Z,85.41
2019-06-20T23:49:39.793Z,84.90
2019-06-20T23:52:14.839Z,84.20
2019-06-20T23:54:44.929Z,84.86
2019-06-20T23:57:14.713Z,85.26
2019-06-20T23:59:44.463Z,84.50
